Time;durP1;ratioP1;P1;durP2;ratioP2;P2;SDS_P1;SDS_P2;PMS_P1;PMS_P2;Temp;Humidity;BMP_temperature;BMP_pressure;BME280_temperature;BME280_humidity;BME280_pressure;Samples;Min_cycle;Max_cycle;Signal;HPM_P1;HPM_P2
2023/07/06 04:17:01;;;;;;;8.43;4.40;;;;;;;19.26;100.00;100175.69;5555328;32;245571;-88
2023/07/06 04:20:11;;;;;;;6.30;4.25;;;;;;;19.26;100.00;100175.69;5543384;32;33436;-87
2023/07/06 04:23:15;;;;;;;8.98;4.62;;;;;;;18.74;100.00;100177.59;5550691;32;33569;-86
2023/07/06 04:26:21;;;;;;;5.90;4.03;;;;;;;18.88;100.00;100179.91;5549874;32;34474;-86
2023/07/06 04:29:23;;;;;;;7.10;3.95;;;;;;;18.81;100.00;100181.44;5543610;32;34542;-86
2023/07/06 04:32:31;;;;;;;5.68;3.85;;;;;;;18.83;100.00;100196.47;5545496;32;33941;-86
2023/07/06 04:35:34;;;;;;;8.13;3.67;;;;;;;18.88;100.00;100205.94;5543843;32;33826;-86
2023/07/06 04:38:40;;;;;;;5.00;3.30;;;;;;;18.97;100.00;100191.69;5549242;32;33668;-86
2023/07/06 04:41:43;;;;;;;5.30;3.30;;;;;;;18.99;100.00;100195.94;5563020;32;33144;-86
2023/07/06 04:44:47;;;;;;;9.60;3.37;;;;;;;19.04;100.00;100195.56;5576298;32;33728;-85
2023/07/06 04:47:51;;;;;;;6.45;3.78;;;;;;;19.16;100.00;100190.09;5570394;32;33874;-86
2023/07/06 04:50:54;;;;;;;6.53;3.53;;;;;;;19.36;100.00;100191.00;5563046;32;33617;-86
2023/07/06 04:53:58;;;;;;;7.32;3.83;;;;;;;19.36;100.00;100194.53;5563108;32;33317;-86
2023/07/06 04:57:03;;;;;;;5.80;3.60;;;;;;;19.46;100.00;100193.69;5563619;32;34101;-86
2023/07/06 05:00:18;;;;;;;5.45;3.60;;;;;;;19.52;100.00;100191.28;5560734;32;34756;-85
2023/07/06 05:03:22;;;;;;;6.03;3.42;;;;;;;19.60;100.00;100187.91;5563329;32;33717;-86
2023/07/06 05:06:25;;;;;;;7.80;3.75;;;;;;;19.44;100.00;100195.66;5562452;32;34337;-85
2023/07/06 05:09:28;;;;;;;6.45;3.75;;;;;;;19.32;100.00;100201.19;5562799;32;33628;-85
2023/07/06 05:12:31;;;;;;;6.22;3.85;;;;;;;19.18;100.00;100199.72;5562963;32;33914;-85
2023/07/06 05:15:34;;;;;;;5.12;3.60;;;;;;;19.21;100.00;100203.97;5562526;32;33537;-85
2023/07/06 05:18:37;;;;;;;6.78;3.75;;;;;;;19.10;100.00;100189.66;5563331;32;33611;-88
2023/07/06 05:21:40;;;;;;;8.07;3.70;;;;;;;19.18;100.00;100190.78;5548756;32;33404;-86
2023/07/06 05:24:43;;;;;;;5.70;3.47;;;;;;;19.19;100.00;100198.72;5563016;32;33439;-86
2023/07/06 05:27:47;;;;;;;5.78;3.47;;;;;;;19.24;100.00;100195.63;5552149;32;34134;-86
2023/07/06 05:30:50;;;;;;;6.95;4.10;;;;;;;19.47;100.00;100201.59;5550181;32;33861;-86
2023/07/06 05:33:53;;;;;;;7.72;3.58;;;;;;;19.63;100.00;100211.00;5551294;32;33850;-86
2023/07/06 05:36:55;;;;;;;5.03;3.40;;;;;;;19.22;100.00;100227.19;5552409;32;33797;-86
2023/07/06 05:40:01;;;;;;;6.87;3.53;;;;;;;19.11;100.00;100228.97;5558815;32;33822;-86
2023/07/06 05:43:04;;;;;;;8.07;3.60;;;;;;;19.23;100.00;100227.06;5545450;32;34624;-86
2023/07/06 05:46:07;;;;;;;5.78;3.17;;;;;;;19.22;100.00;100232.56;5548267;32;34518;-86
2023/07/06 05:49:09;;;;;;;8.43;3.80;;;;;;;19.34;100.00;100226.09;5543546;32;33778;-86
2023/07/06 05:52:12;;;;;;;7.18;4.22;;;;;;;19.18;100.00;100231.13;5537720;32;33569;-89
2023/07/06 05:55:16;;;;;;;7.97;4.12;;;;;;;19.26;100.00;100226.75;5538211;32;33656;-86
2023/07/06 05:58:19;;;;;;;6.75;4.03;;;;;;;19.67;100.00;100225.88;5544918;32;34738;-85
2023/07/06 06:01:25;;;;;;;6.78;3.78;;;;;;;19.83;100.00;100228.00;5535621;32;33499;-85
2023/07/06 06:04:28;;;;;;;6.78;3.97;;;;;;;19.85;100.00;100231.41;5540183;32;32620;-85
2023/07/06 06:07:33;;;;;;;7.12;3.95;;;;;;;19.74;100.00;100227.00;5545207;32;33670;-86
2023/07/06 06:10:36;;;;;;;4.62;4.03;;;;;;;19.50;100.00;100224.69;5536278;32;34282;-85
2023/07/06 06:13:39;;;;;;;7.93;4.05;;;;;;;19.19;100.00;100247.13;5539265;32;33995;-85
2023/07/06 06:16:42;;;;;;;6.05;3.75;;;;;;;19.08;100.00;100236.47;5537535;32;33782;-84
2023/07/06 06:19:46;;;;;;;6.30;3.70;;;;;;;19.34;100.00;100249.44;5535423;32;34125;-85
2023/07/06 06:22:51;;;;;;;9.10;4.28;;;;;;;19.16;100.00;100258.13;5541601;32;33508;-86
2023/07/06 06:25:54;;;;;;;7.12;4.07;;;;;;;19.33;100.00;100272.81;5546082;32;34456;-86
2023/07/06 06:29:00;;;;;;;12.70;5.20;;;;;;;19.15;100.00;100275.25;5541619;32;33763;-87
2023/07/06 06:32:03;;;;;;;7.32;4.30;;;;;;;19.22;100.00;100287.16;5542757;32;33815;-86
2023/07/06 06:35:29;;;;;;;7.65;4.07;;;;;;;18.91;100.00;100283.59;5532646;32;34021;-87
2023/07/06 06:38:34;;;;;;;7.25;4.43;;;;;;;18.86;100.00;100282.16;5522508;32;34709;-86
2023/07/06 06:41:41;;;;;;;7.18;4.15;;;;;;;18.78;100.00;100283.81;5524925;32;34052;-86
2023/07/06 06:44:43;;;;;;;6.10;4.32;;;;;;;18.83;100.00;100279.75;5534966;32;33838;-87
2023/07/06 06:47:46;;;;;;;6.95;3.72;;;;;;;19.04;100.00;100283.41;5529704;32;34216;-85
2023/07/06 06:50:49;;;;;;;7.53;4.50;;;;;;;19.26;100.00;100288.63;5532372;32;33866;-86
2023/07/06 06:53:53;;;;;;;4.95;3.80;;;;;;;19.22;100.00;100283.66;5532044;32;34077;-85
2023/07/06 06:56:56;;;;;;;6.32;3.83;;;;;;;19.69;100.00;100283.09;5527874;32;33917;-87
2023/07/06 06:59:59;;;;;;;7.25;4.05;;;;;;;19.89;100.00;100280.41;5523659;32;33831;-85
2023/07/06 07:03:02;;;;;;;6.20;4.20;;;;;;;19.70;100.00;100279.41;5528736;32;33698;-85
2023/07/06 07:06:13;;;;;;;10.27;4.68;;;;;;;19.95;100.00;100284.41;5539862;32;34123;-85
2023/07/06 07:09:17;;;;;;;;;;;;;;;20.29;100.00;100276.81;5539836;32;35118;-86
2023/07/06 07:12:20;;;;;;;6.97;4.10;;;;;;;21.00;100.00;100277.41;5529591;32;35324;-84
2023/07/06 07:15:24;;;;;;;9.18;4.60;;;;;;;21.18;100.00;100263.16;5530012;32;33582;-84
2023/07/06 07:18:28;;;;;;;7.40;4.68;;;;;;;20.84;100.00;100275.34;5531452;32;34786;-84
2023/07/06 07:21:30;;;;;;;7.97;4.18;;;;;;;21.78;100.00;100267.22;5527122;32;34167;-83
2023/07/06 07:24:33;;;;;;;6.50;4.12;;;;;;;22.20;100.00;100264.94;5523394;32;34385;-84
2023/07/06 07:27:36;;;;;;;7.68;4.35;;;;;;;22.05;100.00;100272.72;5535276;32;35556;-83
2023/07/06 07:30:40;;;;;;;7.55;3.87;;;;;;;21.81;100.00;100274.19;5525265;32;34085;-86
2023/07/06 07:33:43;;;;;;;7.45;3.97;;;;;;;22.15;100.00;100265.41;5528962;32;34093;-85
2023/07/06 07:36:47;;;;;;;8.68;4.25;;;;;;;23.21;100.00;100265.47;5531496;32;33909;-86
2023/07/06 07:39:49;;;;;;;6.65;4.35;;;;;;;24.11;100.00;100265.94;5529419;32;34808;-89
2023/07/06 07:42:52;;;;;;;6.07;3.85;;;;;;;25.29;99.55;100269.16;5532533;32;33876;-88
2023/07/06 07:46:05;;;;;;;6.87;3.80;;;;;;;25.83;95.92;100274.84;5535886;32;33728;-90
2023/07/06 07:49:09;;;;;;;4.82;4.30;;;;;;;25.90;92.80;100280.41;5531036;32;34056;-85
2023/07/06 07:52:12;;;;;;;6.18;3.90;;;;;;;25.70;93.10;100270.84;5517931;32;33717;-86
2023/07/06 07:55:15;;;;;;;6.97;3.75;;;;;;;24.61;97.80;100268.63;5529329;32;35266;-86
2023/07/06 07:58:18;;;;;;;5.03;4.05;;;;;;;24.06;100.00;100273.69;5525381;32;33128;-85
2023/07/06 08:01:23;;;;;;;8.95;4.60;;;;;;;23.41;100.00;100265.25;5521767;32;33851;-85
2023/07/06 08:04:26;;;;;;;6.03;4.20;;;;;;;24.04;100.00;100256.75;5519855;32;33743;-85
2023/07/06 08:07:31;;;;;;;5.18;4.00;;;;;;;24.13;100.00;100257.66;5530656;32;33889;-87
2023/07/06 08:10:38;;;;;;;6.20;4.00;;;;;;;23.71;100.00;100254.84;5533876;32;34505;-86
2023/07/06 08:13:44;;;;;;;6.37;3.87;;;;;;;23.74;100.00;100254.50;5540319;32;33868;-89
2023/07/06 08:16:48;;;;;;;4.70;3.70;;;;;;;23.74;100.00;100256.38;5546668;32;34706;-86
2023/07/06 08:19:52;;;;;;;6.87;3.80;;;;;;;23.60;100.00;100258.72;5540592;32;33784;-88
2023/07/06 08:23:16;;;;;;;4.45;3.80;;;;;;;23.75;100.00;100261.63;5542456;32;34407;-88
2023/07/06 08:26:19;;;;;;;10.43;4.62;;;;;;;23.42;94.61;100266.94;5547035;32;33765;-86
2023/07/06 08:29:22;;;;;;;5.57;3.90;;;;;;;24.19;94.88;100257.81;5555104;32;35239;-86
2023/07/06 08:32:25;;;;;;;7.90;4.20;;;;;;;24.52;93.66;100265.09;5554126;32;33831;-87
2023/07/06 08:35:29;;;;;;;5.12;3.80;;;;;;;25.42;86.06;100262.31;5545082;32;34072;-87
2023/07/06 08:38:32;;;;;;;4.65;3.47;;;;;;;26.40;80.79;100261.03;5562235;32;34035;-87
2023/07/06 08:41:40;;;;;;;6.95;3.62;;;;;;;27.70;78.26;100263.50;5547695;32;33387;-87
2023/07/06 08:44:50;;;;;;;8.00;4.00;;;;;;;28.60;74.11;100265.84;5547125;32;33363;-87
2023/07/06 08:47:56;;;;;;;6.53;3.83;;;;;;;29.19;67.33;100274.66;5553641;32;32530;-87
2023/07/06 08:51:15;;;;;;;6.20;3.50;;;;;;;29.15;68.22;100275.22;5555372;32;33412;-86
2023/07/06 08:54:23;;;;;;;7.03;3.35;;;;;;;30.24;66.06;100280.03;5546509;32;33978;-86
2023/07/06 08:57:30;;;;;;;5.28;3.83;;;;;;;29.94;61.53;100272.19;5546298;32;34013;-86
2023/07/06 09:00:33;;;;;;;4.07;3.33;;;;;;;29.55;61.29;100277.31;5539678;32;34040;-90
2023/07/06 09:03:41;;;;;;;5.37;3.90;;;;;;;27.65;67.61;100271.44;5535273;32;33853;-90
2023/07/06 09:06:52;;;;;;;5.20;3.55;;;;;;;28.98;62.19;100259.19;5549376;32;33785;-86
2023/07/06 09:09:56;;;;;;;4.18;3.53;;;;;;;29.68;62.64;100262.88;5546355;32;33846;-86
2023/07/06 09:13:26;;;;;;;6.97;3.90;;;;;;;29.20;59.38;100259.09;5541586;32;33445;-86
2023/07/06 09:16:35;;;;;;;4.18;3.67;;;;;;;29.28;59.78;100260.81;5548825;32;33808;-86
2023/07/06 09:19:38;;;;;;;5.07;3.62;;;;;;;29.53;61.83;100257.56;5551869;32;33798;-86
2023/07/06 09:22:41;;;;;;;8.68;3.85;;;;;;;28.62;64.39;100255.56;5548763;32;34037;-87
2023/07/06 09:25:46;;;;;;;8.20;4.03;;;;;;;29.45;62.94;100245.75;5548852;32;35002;-87
2023/07/06 09:28:51;;;;;;;4.78;3.92;;;;;;;28.79;64.18;100252.53;5530849;32;33630;-86
2023/07/06 09:32:12;;;;;;;5.37;4.10;;;;;;;28.95;63.97;100256.03;5535038;32;33610;-86
2023/07/06 09:35:20;;;;;;;5.68;4.00;;;;;;;30.68;58.81;100261.31;5568087;31;34147;-86
2023/07/06 09:38:25;;;;;;;6.35;3.50;;;;;;;31.03;55.15;100262.94;5553988;32;34967;-86
2023/07/06 09:41:29;;;;;;;7.32;3.90;;;;;;;31.08;55.26;100249.44;5548897;32;33955;-86
2023/07/06 09:44:32;;;;;;;6.53;3.70;;;;;;;30.92;54.71;100256.22;5546431;32;33976;-86
2023/07/06 09:47:34;;;;;;;6.72;3.75;;;;;;;30.93;55.97;100258.72;5544386;32;33859;-86
2023/07/06 09:50:44;;;;;;;6.50;3.72;;;;;;;30.82;54.62;100264.84;5531062;32;33839;-87
2023/07/06 09:53:59;;;;;;;4.47;3.80;;;;;;;30.46;55.70;100266.16;5547824;32;34202;-87
2023/07/06 09:57:15;;;;;;;4.18;3.47;;;;;;;29.16;57.73;100268.75;5538218;32;33761;-87
2023/07/06 10:00:22;;;;;;;5.10;3.78;;;;;;;28.32;60.51;100257.66;5542891;32;34684;-89
2023/07/06 10:03:36;;;;;;;8.40;3.97;;;;;;;27.59;62.09;100264.84;5548969;32;33829;-91
2023/07/06 10:06:59;;;;;;;6.62;3.95;;;;;;;27.29;62.80;100267.59;5542483;32;33768;-87
2023/07/06 10:10:42;;;;;;;6.30;3.90;;;;;;;27.97;59.03;100264.63;5557047;32;34528;-87
2023/07/06 10:13:45;;;;;;;4.68;3.65;;;;;;;27.29;58.92;100268.44;5548345;32;34188;-86
2023/07/06 10:17:09;;;;;;;6.35;3.83;;;;;;;26.51;60.27;100266.03;5543972;32;33644;-87
2023/07/06 10:20:42;;;;;;;6.00;3.83;;;;;;;26.71;61.40;100265.50;5541556;32;33889;-86
2023/07/06 10:24:10;;;;;;;6.37;4.20;;;;;;;25.99;64.44;100262.19;5540851;32;32593;-85
2023/07/06 10:27:37;;;;;;;5.22;3.60;;;;;;;26.22;67.64;100256.75;5548232;32;33887;-89
2023/07/06 10:30:47;;;;;;;15.40;4.45;;;;;;;26.79;65.89;100254.53;5539648;32;32600;-85
2023/07/06 10:34:15;;;;;;;4.82;3.70;;;;;;;28.95;58.48;100261.50;5541987;32;33792;-86
2023/07/06 10:37:18;;;;;;;11.02;4.78;;;;;;;30.23;54.66;100265.50;5544734;32;34436;-86
2023/07/06 10:40:24;;;;;;;5.10;3.95;;;;;;;29.80;56.03;100268.56;5547785;32;34024;-85
2023/07/06 10:43:28;;;;;;;5.05;4.15;;;;;;;30.79;54.01;100273.50;5541339;32;34422;-85
2023/07/06 10:46:33;;;;;;;4.90;4.30;;;;;;;29.73;56.97;100269.38;5534714;32;33821;-86
2023/07/06 10:50:19;;;;;;;8.45;4.43;;;;;;;28.41;62.37;100261.91;5537265;32;33871;-86
2023/07/06 10:53:43;;;;;;;6.78;4.22;;;;;;;28.89;61.02;100263.13;5533968;32;33848;-86
2023/07/06 10:57:00;;;;;;;6.68;4.03;;;;;;;29.06;61.67;100263.63;5542235;32;34540;-87
2023/07/06 11:00:31;;;;;;;5.30;4.00;;;;;;;28.28;59.21;100262.66;5546732;32;35064;-87
2023/07/06 11:03:35;;;;;;;6.78;3.97;;;;;;;29.58;57.52;100263.28;5535003;32;33730;-86
2023/07/06 11:06:44;;;;;;;7.70;4.12;;;;;;;30.42;52.97;100265.72;5547599;32;34097;-87
2023/07/06 11:10:13;;;;;;;6.47;4.15;;;;;;;30.67;51.42;100268.66;5543193;32;33845;-87
2023/07/06 11:13:19;;;;;;;6.03;4.40;;;;;;;32.16;43.49;100265.34;5548851;32;33805;-87
2023/07/06 11:16:41;;;;;;;4.82;3.70;;;;;;;30.26;49.48;100254.16;5548101;32;34128;-87
2023/07/06 11:19:58;;;;;;;5.50;4.07;;;;;;;29.54;48.82;100260.09;5538992;32;34436;-87
2023/07/06 11:23:02;;;;;;;8.65;3.80;;;;;;;29.65;49.88;100249.59;5543016;32;33754;-87
2023/07/06 11:26:18;;;;;;;7.45;3.92;;;;;;;30.00;49.66;100252.22;5540271;32;33892;-87
2023/07/06 11:29:28;;;;;;;7.20;3.97;;;;;;;29.83;50.88;100240.84;5545112;32;33855;-87
2023/07/06 11:32:41;;;;;;;7.37;4.05;;;;;;;28.61;51.58;100240.22;5539396;32;34452;-87
2023/07/06 11:36:20;;;;;;;6.30;3.97;;;;;;;28.28;52.60;100234.53;5529994;32;34509;-87
2023/07/06 11:39:30;;;;;;;6.12;4.00;;;;;;;28.21;53.18;100232.56;5536880;32;33971;-87
2023/07/06 11:42:39;;;;;;;5.22;3.72;;;;;;;28.01;51.79;100239.72;5555809;32;34752;-87
2023/07/06 11:46:08;;;;;;;3.97;3.58;;;;;;;28.96;48.60;100244.88;5545157;32;34205;-85
2023/07/06 11:49:40;;;;;;;5.70;3.90;;;;;;;29.31;47.79;100244.84;5549660;32;34128;-85
2023/07/06 11:52:58;;;;;;;6.87;4.12;;;;;;;29.82;47.08;100244.63;5547582;32;34713;-86
2023/07/06 11:56:18;;;;;;;5.65;3.78;;;;;;;29.87;46.10;100255.78;5548153;32;33833;-87
2023/07/06 11:59:37;;;;;;;;;;;;;;;29.99;47.88;100251.38;5548130;32;33903;-86
2023/07/06 12:02:40;;;;;;;6.75;4.00;;;;;;;29.50;48.23;100241.59;5538555;32;34106;-86
2023/07/06 12:05:50;;;;;;;5.82;3.72;;;;;;;29.84;45.40;100251.56;5541466;32;33490;-86
2023/07/06 12:08:58;;;;;;;4.97;3.58;;;;;;;29.55;47.77;100248.13;5542340;32;34752;-90
2023/07/06 12:12:06;;;;;;;5.53;3.40;;;;;;;30.53;44.65;100243.19;5532924;32;33729;-89
2023/07/06 12:15:12;;;;;;;6.78;3.50;;;;;;;30.65;44.70;100237.06;5549619;32;34418;-85
2023/07/06 12:18:15;;;;;;;4.50;3.42;;;;;;;30.23;45.83;100242.81;5541512;32;33980;-85
2023/07/06 12:21:27;;;;;;;3.85;3.47;;;;;;;30.04;43.70;100237.06;5547023;32;33805;-85
2023/07/06 12:24:32;;;;;;;4.32;3.55;;;;;;;28.91;45.43;100236.47;5551914;32;35000;-85
2023/07/06 12:27:35;;;;;;;5.60;3.62;;;;;;;28.46;47.99;100228.59;5537544;32;34137;-87
2023/07/06 12:30:43;;;;;;;4.25;3.45;;;;;;;28.91;48.36;100222.84;5538348;32;34302;-87
2023/07/06 12:33:45;;;;;;;6.75;3.87;;;;;;;29.51;46.84;100214.06;5550080;32;34054;-85
2023/07/06 12:36:51;;;;;;;6.40;3.83;;;;;;;29.35;45.61;100220.69;5543665;32;34092;-85
2023/07/06 12:39:55;;;;;;;4.03;3.50;;;;;;;29.28;46.97;100207.03;5533390;32;33609;-85
2023/07/06 12:42:58;;;;;;;5.65;3.72;;;;;;;29.73;46.87;100209.25;5534101;32;33841;-85
2023/07/06 12:46:01;;;;;;;4.50;3.28;;;;;;;29.44;46.33;100197.63;5533504;32;34141;-86
2023/07/06 12:49:16;;;;;;;5.85;3.67;;;;;;;29.70;46.45;100211.56;5540459;32;33943;-86
2023/07/06 12:52:23;;;;;;;5.57;3.42;;;;;;;29.65;45.50;100211.34;5531474;32;34777;-86
2023/07/06 12:55:31;;;;;;;5.30;3.40;;;;;;;28.97;43.35;100211.09;5536357;32;35239;-86
2023/07/06 12:58:45;;;;;;;5.87;3.65;;;;;;;29.52;43.38;100210.25;5547896;32;34346;-86
2023/07/06 13:01:49;;;;;;;6.18;3.47;;;;;;;29.65;41.39;100220.41;5560215;32;33694;-86
2023/07/06 13:04:51;;;;;;;4.60;3.47;;;;;;;29.36;41.64;100210.63;5552785;32;35175;-86
2023/07/06 13:07:55;;;;;;;5.47;3.35;;;;;;;29.45;43.15;100209.38;5546592;32;34116;-86
2023/07/06 13:11:06;;;;;;;3.95;3.55;;;;;;;29.81;40.97;100218.34;5550647;32;34759;-86
2023/07/06 13:14:16;;;;;;;5.15;3.22;;;;;;;29.76;40.14;100207.19;5534839;32;34623;-86
2023/07/06 13:17:25;;;;;;;4.78;3.20;;;;;;;30.01;39.56;100201.09;5529929;32;33584;-86
2023/07/06 13:20:31;;;;;;;6.50;3.12;;;;;;;28.89;41.30;100211.25;5551414;32;34279;-86
2023/07/06 13:23:35;;;;;;;11.60;3.60;;;;;;;29.06;40.53;100209.03;5546214;32;34908;-89
2023/07/06 13:26:38;;;;;;;4.60;3.22;;;;;;;29.24;41.23;100207.63;5554772;32;34616;-90
2023/07/06 13:29:41;;;;;;;4.32;3.35;;;;;;;29.23;40.06;100206.81;5571068;32;34212;-90
2023/07/06 13:32:46;;;;;;;5.43;3.28;;;;;;;29.14;40.70;100202.53;5584656;32;34706;-90
2023/07/06 13:35:48;;;;;;;3.55;3.08;;;;;;;29.20;40.80;100201.72;5581709;32;33779;-86
2023/07/06 13:38:51;;;;;;;5.68;3.53;;;;;;;29.00;41.15;100198.91;5568708;32;33645;-87
2023/07/06 13:41:54;;;;;;;5.35;3.78;;;;;;;28.79;41.33;100206.13;5568125;32;33822;-86
2023/07/06 13:44:57;;;;;;;6.80;3.60;;;;;;;29.18;40.43;100199.19;5568419;32;33449;-87
2023/07/06 13:48:02;;;;;;;5.85;3.78;;;;;;;29.03;41.46;100193.06;5567020;32;33523;-86
2023/07/06 13:51:06;;;;;;;4.00;3.30;;;;;;;28.74;40.96;100198.56;5536062;32;34053;-86
2023/07/06 13:54:10;;;;;;;4.00;3.60;;;;;;;28.73;41.55;100196.03;5548140;32;33922;-86
2023/07/06 13:57:13;;;;;;;8.20;3.72;;;;;;;28.87;41.41;100194.25;5548300;32;33810;-88
2023/07/06 14:00:16;;;;;;;5.32;3.70;;;;;;;28.61;41.78;100193.84;5546151;32;33874;-86
2023/07/06 14:03:28;;;;;;;3.90;3.50;;;;;;;28.32;44.42;100194.91;5548121;32;34648;-86
2023/07/06 14:06:31;;;;;;;4.15;3.75;;;;;;;27.79;45.40;100205.12;5534054;32;33738;-86
2023/07/06 14:09:34;;;;;;;5.97;3.72;;;;;;;28.09;45.67;100198.69;5548362;32;33894;-86
2023/07/06 14:12:36;;;;;;;5.05;3.47;;;;;;;27.82;45.90;100199.28;5538636;32;34358;-86
2023/07/06 14:15:41;;;;;;;6.28;3.50;;;;;;;28.21;43.90;100210.75;5528989;32;33299;-86
2023/07/06 14:18:44;;;;;;;4.40;3.50;;;;;;;28.11;43.58;100197.44;5561279;26;33888;-83
2023/07/06 14:21:47;;;;;;;5.00;3.33;;;;;;;28.40;43.29;100207.56;5570725;32;33835;-83
2023/07/06 14:24:50;;;;;;;5.35;3.37;;;;;;;28.50;43.27;100203.44;5570667;32;33995;-84
2023/07/06 14:27:55;;;;;;;5.95;3.50;;;;;;;28.60;43.26;100203.09;5571013;32;34148;-84
2023/07/06 14:31:02;;;;;;;5.45;3.30;;;;;;;29.03;42.01;100212.16;5570399;32;34823;-84
2023/07/06 14:34:07;;;;;;;3.60;3.30;;;;;;;28.59;42.16;100203.28;5571366;32;33803;-84
2023/07/06 14:37:11;;;;;;;4.68;3.50;;;;;;;28.86;41.86;100201.59;5569333;32;33520;-88
2023/07/06 14:40:13;;;;;;;4.43;3.45;;;;;;;28.53;50.48;100196.75;5568968;32;33735;-85
2023/07/06 14:43:16;;;;;;;4.87;3.60;;;;;;;27.74;53.93;100209.50;5569314;32;33860;-85
2023/07/06 14:46:19;;;;;;;4.05;3.65;;;;;;;27.05;59.83;100217.84;5574863;32;34532;-86
2023/07/06 14:49:21;;;;;;;6.53;4.80;;;;;;;26.78;62.55;100207.44;5575292;32;33920;-85
2023/07/06 14:52:25;;;;;;;4.43;3.60;;;;;;;26.61;63.79;100206.75;5573767;32;33900;-85
2023/07/06 14:55:28;;;;;;;5.85;4.32;;;;;;;26.52;63.21;100207.91;5571809;32;34145;-85
2023/07/06 14:58:33;;;;;;;4.22;3.83;;;;;;;26.64;63.55;100203.69;5570646;32;33887;-85
2023/07/06 15:01:36;;;;;;;4.53;3.50;;;;;;;26.73;64.02;100206.31;5571628;32;33562;-85
2023/07/06 15:04:39;;;;;;;3.92;3.55;;;;;;;26.98;62.90;100206.03;5571925;32;34967;-85
2023/07/06 15:07:41;;;;;;;6.40;3.80;;;;;;;27.31;61.49;100203.75;5560872;32;32282;-85
2023/07/06 15:10:44;;;;;;;5.10;3.80;;;;;;;27.37;61.56;100193.97;5553024;32;33867;-85
2023/07/06 15:13:47;;;;;;;5.97;4.00;;;;;;;27.38;60.26;100200.25;5554739;32;34517;-85
2023/07/06 15:16:50;;;;;;;4.50;3.62;;;;;;;27.34;61.47;100202.53;5563724;32;33861;-85
2023/07/06 15:19:53;;;;;;;5.28;4.05;;;;;;;27.04;57.33;100199.84;5562246;32;34071;-85
